Lake Providence, LA (71254)

10:06 AM CDT on May 23, 2017 (GMT -0500)
MD9592 | | Change Station
Active Advisory: Flood Warning

Elev 91 ft 32.61 °N, 91.35 °W | Updated 8 days ago

Overcast
Overcast
62.0 °F
Feels Like 62.0 °F
N
0.0
Wind Variable Wind from WNW
Gusts 0.0 mph

Today
High -- | Low -- °F
--% Chance of Precip.
Yesterday
High -- | Low -- °F
Precip. -- in
Pressure 29.84 in
Visibility 10.0 miles
Clouds Overcast 1200 ft
Dew Point 59 °F
Humidity 89%
Rainfall 0.82 in
Snow Depth Not available.
6:00 AM 8:02 PM
Waning Crescent, 7% visible
METAR KTVR 231453Z AUTO VRB03KT 10SM OVC012 21/18 A2982 RMK AO2 SLP105 T02060183 53008
Pressure 29.84 in
Visibility 10.0 miles
Clouds Overcast 1200 ft
Dew Point 59 °F
Humidity 89%
Rainfall 0.82 in
Snow Depth Not available.
6:00 AM 8:02 PM
Waning Crescent, 7% visible
METAR KTVR 231453Z AUTO VRB03KT 10SM OVC012 21/18 A2982 RMK AO2 SLP105 T02060183 53008

Get Your Daily Forecast Email!

Thanks for signing up!

Be on the lookout for a verification email in your inbox.

You'll start receiving severe weather alerts in your inbox..

×

10-Day Weather Forecast

Almanac

Astronomy

May. 23, 2017 Rise Set
Actual Time
Civil Twilight
Nautical Twilight
Astronomical Twilight
Moon
Length of Visible Light
Length of Day
Tomorrow will be .
, % of the Moon is Illuminated

Today's Extremes

State Highs State Lows

Community

WunderPhotos

Category 6

Welcome to Category 6. This is the collective home for Weather Underground's featured writeups by Dr. Jeff Masters (right), Bob Henson (left), Chris Burt, and other regular contributors.

Nearby

Air Quality

  Air Quality AQ Index Pollutant
Not available.

Snow Depth

Station Depth Elevation

Earthquake Activity

City Distance Mag. Time & Date
Minimum magnitude displayed is 2.5.

Coastal Water Temperatures

Place Temperature

Stations

Nearby Weather Stations

Station Location Temp. Windchill Dew Point Humidity Wind Precip. Elev Updated Type
                   

Watches & Warnings

Flood Warning
Issued: 8:28 PM CDT May. 22, 2017 – National Weather Service


The Flood Warning continues for
the Mississippi River near Greenville
* until Monday June 05.
* At 8:00 PM Monday the stage was 54.3 feet.
* Moderate flooding is occurring and moderate flooding is forecast.
* Flood stage is 48.0 feet.
* Forecast... the river is cresting and will not experience a significant
fall for at least the next 3 days.


              Flood observed forecast 6 am crest
location stg stg day time Tue Wed Thu crest time date

Lower Mississippi River
Greenville 48 54.3 Mon 08 PM 54.2 54.2 54.2




Lat... Lon 3277 9123 3340 9128 3340 9105 3283 9101
      3277 9101 3278 9111